sensor_id;sensor_type;location;lat;lon;timestamp;P1;durP1;ratioP1;P2;durP2;ratioP2
41546;SDS011;27271;45.412;10.852;2022-12-18T00:03:14;19.02;;;9.20;;
41546;SDS011;27271;45.412;10.852;2022-12-18T00:06:37;17.35;;;9.77;;
41546;SDS011;27271;45.412;10.852;2022-12-18T00:10:02;20.38;;;9.00;;
41546;SDS011;27271;45.412;10.852;2022-12-18T00:13:25;18.85;;;9.50;;
41546;SDS011;27271;45.412;10.852;2022-12-18T00:16:52;17.70;;;8.77;;
41546;SDS011;27271;45.412;10.852;2022-12-18T00:20:20;19.48;;;8.95;;
41546;SDS011;27271;45.412;10.852;2022-12-18T00:23:48;16.08;;;8.25;;
41546;SDS011;27271;45.412;10.852;2022-12-18T00:27:12;19.95;;;8.35;;
41546;SDS011;27271;45.412;10.852;2022-12-18T00:30:34;19.88;;;9.15;;
41546;SDS011;27271;45.412;10.852;2022-12-18T00:33:57;19.95;;;9.95;;
41546;SDS011;27271;45.412;10.852;2022-12-18T00:37:19;17.20;;;9.55;;
41546;SDS011;27271;45.412;10.852;2022-12-18T00:40:46;23.77;;;10.75;;
41546;SDS011;27271;45.412;10.852;2022-12-18T00:44:12;17.67;;;10.23;;
41546;SDS011;27271;45.412;10.852;2022-12-18T00:47:36;21.20;;;10.10;;
41546;SDS011;27271;45.412;10.852;2022-12-18T00:51:10;23.38;;;9.73;;
41546;SDS011;27271;45.412;10.852;2022-12-18T00:54:32;21.40;;;8.98;;
41546;SDS011;27271;45.412;10.852;2022-12-18T00:57:55;20.73;;;10.45;;
41546;SDS011;27271;45.412;10.852;2022-12-18T01:01:18;18.40;;;9.20;;
41546;SDS011;27271;45.412;10.852;2022-12-18T01:04:44;19.75;;;8.80;;
41546;SDS011;27271;45.412;10.852;2022-12-18T01:08:06;17.55;;;9.18;;
41546;SDS011;27271;45.412;10.852;2022-12-18T01:11:28;21.85;;;8.70;;
41546;SDS011;27271;45.412;10.852;2022-12-18T01:14:51;21.92;;;9.85;;
41546;SDS011;27271;45.412;10.852;2022-12-18T01:18:14;16.23;;;9.35;;
41546;SDS011;27271;45.412;10.852;2022-12-18T01:21:38;20.63;;;9.15;;
41546;SDS011;27271;45.412;10.852;2022-12-18T01:25:02;16.25;;;8.43;;
41546;SDS011;27271;45.412;10.852;2022-12-18T01:28:28;18.00;;;9.70;;
41546;SDS011;27271;45.412;10.852;2022-12-18T01:31:54;17.38;;;9.43;;
41546;SDS011;27271;45.412;10.852;2022-12-18T01:35:16;17.50;;;8.77;;
41546;SDS011;27271;45.412;10.852;2022-12-18T01:38:40;22.73;;;8.77;;
41546;SDS011;27271;45.412;10.852;2022-12-18T01:42:02;19.92;;;10.15;;
41546;SDS011;27271;45.412;10.852;2022-12-18T01:45:26;20.58;;;9.63;;
41546;SDS011;27271;45.412;10.852;2022-12-18T01:48:53;20.73;;;9.50;;
41546;SDS011;27271;45.412;10.852;2022-12-18T01:55:47;18.85;;;9.05;;
41546;SDS011;27271;45.412;10.852;2022-12-18T01:59:14;20.60;;;9.60;;
41546;SDS011;27271;45.412;10.852;2022-12-18T02:02:37;18.35;;;8.55;;
41546;SDS011;27271;45.412;10.852;2022-12-18T02:09:45;16.90;;;8.45;;
41546;SDS011;27271;45.412;10.852;2022-12-18T02:13:20;16.05;;;8.40;;
41546;SDS011;27271;45.412;10.852;2022-12-18T02:16:52;19.75;;;8.38;;
41546;SDS011;27271;45.412;10.852;2022-12-18T02:20:22;15.55;;;8.07;;
41546;SDS011;27271;45.412;10.852;2022-12-18T02:23:50;17.05;;;7.80;;
41546;SDS011;27271;45.412;10.852;2022-12-18T02:27:35;16.25;;;8.20;;
41546;SDS011;27271;45.412;10.852;2022-12-18T02:31:01;15.75;;;8.43;;
41546;SDS011;27271;45.412;10.852;2022-12-18T02:34:27;15.77;;;8.55;;
41546;SDS011;27271;45.412;10.852;2022-12-18T02:37:52;16.15;;;8.88;;
41546;SDS011;27271;45.412;10.852;2022-12-18T02:41:16;16.92;;;8.68;;
41546;SDS011;27271;45.412;10.852;2022-12-18T02:44:47;23.17;;;9.80;;
41546;SDS011;27271;45.412;10.852;2022-12-18T02:48:25;17.00;;;8.98;;
41546;SDS011;27271;45.412;10.852;2022-12-18T02:51:55;15.57;;;7.88;;
41546;SDS011;27271;45.412;10.852;2022-12-18T02:56:03;18.67;;;8.13;;
41546;SDS011;27271;45.412;10.852;2022-12-18T02:59:47;15.18;;;7.70;;
41546;SDS011;27271;45.412;10.852;2022-12-18T03:03:52;15.18;;;7.05;;
41546;SDS011;27271;45.412;10.852;2022-12-18T03:07:34;11.50;;;7.05;;
41546;SDS011;27271;45.412;10.852;2022-12-18T03:11:06;16.90;;;7.57;;
41546;SDS011;27271;45.412;10.852;2022-12-18T03:14:32;14.15;;;7.50;;
41546;SDS011;27271;45.412;10.852;2022-12-18T03:18:03;13.98;;;7.28;;
41546;SDS011;27271;45.412;10.852;2022-12-18T03:21:33;20.02;;;6.75;;
41546;SDS011;27271;45.412;10.852;2022-12-18T03:25:03;18.45;;;7.75;;
41546;SDS011;27271;45.412;10.852;2022-12-18T03:32:02;13.98;;;7.15;;
41546;SDS011;27271;45.412;10.852;2022-12-18T03:35:33;12.73;;;7.10;;
41546;SDS011;27271;45.412;10.852;2022-12-18T03:39:00;13.23;;;7.57;;
41546;SDS011;27271;45.412;10.852;2022-12-18T03:42:29;13.75;;;6.35;;
41546;SDS011;27271;45.412;10.852;2022-12-18T03:46:27;13.15;;;7.10;;
41546;SDS011;27271;45.412;10.852;2022-12-18T03:50:16;11.65;;;6.82;;
41546;SDS011;27271;45.412;10.852;2022-12-18T03:53:57;13.05;;;7.28;;
41546;SDS011;27271;45.412;10.852;2022-12-18T03:57:40;14.65;;;7.55;;
41546;SDS011;27271;45.412;10.852;2022-12-18T04:01:13;12.75;;;6.63;;
41546;SDS011;27271;45.412;10.852;2022-12-18T04:04:39;15.90;;;7.55;;
41546;SDS011;27271;45.412;10.852;2022-12-18T04:08:04;12.77;;;6.97;;
41546;SDS011;27271;45.412;10.852;2022-12-18T04:11:45;11.63;;;6.80;;
41546;SDS011;27271;45.412;10.852;2022-12-18T04:15:11;17.25;;;7.70;;
41546;SDS011;27271;45.412;10.852;2022-12-18T04:19:03;12.43;;;6.53;;
41546;SDS011;27271;45.412;10.852;2022-12-18T04:22:34;19.77;;;7.35;;
41546;SDS011;27271;45.412;10.852;2022-12-18T04:25:57;14.82;;;7.85;;
41546;SDS011;27271;45.412;10.852;2022-12-18T04:29:49;17.88;;;8.20;;
41546;SDS011;27271;45.412;10.852;2022-12-18T04:33:13;15.63;;;8.10;;
41546;SDS011;27271;45.412;10.852;2022-12-18T04:36:37;11.35;;;6.43;;
41546;SDS011;27271;45.412;10.852;2022-12-18T04:40:01;13.65;;;6.32;;
41546;SDS011;27271;45.412;10.852;2022-12-18T04:43:32;15.10;;;6.75;;
41546;SDS011;27271;45.412;10.852;2022-12-18T04:46:58;11.73;;;6.82;;
41546;SDS011;27271;45.412;10.852;2022-12-18T04:50:21;15.00;;;7.25;;
41546;SDS011;27271;45.412;10.852;2022-12-18T04:53:44;10.82;;;6.10;;
41546;SDS011;27271;45.412;10.852;2022-12-18T04:57:07;11.32;;;5.78;;
41546;SDS011;27271;45.412;10.852;2022-12-18T05:00:29;17.27;;;6.82;;
41546;SDS011;27271;45.412;10.852;2022-12-18T05:03:51;11.02;;;6.20;;
41546;SDS011;27271;45.412;10.852;2022-12-18T05:07:14;12.00;;;6.50;;
41546;SDS011;27271;45.412;10.852;2022-12-18T05:10:36;13.60;;;6.38;;
41546;SDS011;27271;45.412;10.852;2022-12-18T05:14:00;11.38;;;5.65;;
41546;SDS011;27271;45.412;10.852;2022-12-18T05:17:23;13.73;;;6.85;;
41546;SDS011;27271;45.412;10.852;2022-12-18T05:20:47;13.00;;;6.53;;
41546;SDS011;27271;45.412;10.852;2022-12-18T05:24:09;12.00;;;6.72;;
41546;SDS011;27271;45.412;10.852;2022-12-18T05:27:32;12.93;;;6.72;;
41546;SDS011;27271;45.412;10.852;2022-12-18T05:30:57;10.95;;;6.07;;
41546;SDS011;27271;45.412;10.852;2022-12-18T05:34:21;10.85;;;6.38;;
41546;SDS011;27271;45.412;10.852;2022-12-18T05:37:43;10.85;;;6.00;;
41546;SDS011;27271;45.412;10.852;2022-12-18T05:41:06;12.50;;;6.03;;
41546;SDS011;27271;45.412;10.852;2022-12-18T05:44:28;9.10;;;5.50;;
41546;SDS011;27271;45.412;10.852;2022-12-18T05:47:50;11.02;;;5.53;;
41546;SDS011;27271;45.412;10.852;2022-12-18T05:51:16;11.80;;;5.55;;
41546;SDS011;27271;45.412;10.852;2022-12-18T05:54:44;15.00;;;6.05;;
41546;SDS011;27271;45.412;10.852;2022-12-18T05:58:07;10.07;;;5.63;;
41546;SDS011;27271;45.412;10.852;2022-12-18T06:01:33;13.65;;;6.43;;
41546;SDS011;27271;45.412;10.852;2022-12-18T06:04:55;8.55;;;5.53;;
41546;SDS011;27271;45.412;10.852;2022-12-18T06:08:18;9.98;;;5.22;;
41546;SDS011;27271;45.412;10.852;2022-12-18T06:11:42;9.18;;;5.03;;
41546;SDS011;27271;45.412;10.852;2022-12-18T06:15:05;10.75;;;5.82;;
41546;SDS011;27271;45.412;10.852;2022-12-18T06:18:32;9.25;;;5.63;;
41546;SDS011;27271;45.412;10.852;2022-12-18T06:21:59;13.82;;;5.85;;
41546;SDS011;27271;45.412;10.852;2022-12-18T06:25:31;10.43;;;6.20;;
41546;SDS011;27271;45.412;10.852;2022-12-18T06:28:55;14.27;;;5.47;;
41546;SDS011;27271;45.412;10.852;2022-12-18T06:32:32;9.88;;;6.10;;
41546;SDS011;27271;45.412;10.852;2022-12-18T06:35:59;11.35;;;6.10;;
41546;SDS011;27271;45.412;10.852;2022-12-18T06:39:30;16.25;;;6.95;;
41546;SDS011;27271;45.412;10.852;2022-12-18T06:42:54;11.52;;;5.85;;
41546;SDS011;27271;45.412;10.852;2022-12-18T06:46:16;13.93;;;6.40;;
41546;SDS011;27271;45.412;10.852;2022-12-18T06:49:39;8.88;;;5.57;;
41546;SDS011;27271;45.412;10.852;2022-12-18T06:53:01;44.95;;;23.15;;
41546;SDS011;27271;45.412;10.852;2022-12-18T06:56:24;37.42;;;20.48;;
41546;SDS011;27271;45.412;10.852;2022-12-18T06:59:46;43.83;;;22.90;;
41546;SDS011;27271;45.412;10.852;2022-12-18T07:03:08;24.45;;;13.98;;
41546;SDS011;27271;45.412;10.852;2022-12-18T07:06:30;15.45;;;6.63;;
41546;SDS011;27271;45.412;10.852;2022-12-18T07:09:52;9.75;;;5.78;;
41546;SDS011;27271;45.412;10.852;2022-12-18T07:13:15;13.77;;;6.80;;
41546;SDS011;27271;45.412;10.852;2022-12-18T07:16:37;12.65;;;6.10;;
41546;SDS011;27271;45.412;10.852;2022-12-18T07:20:00;13.55;;;6.30;;
41546;SDS011;27271;45.412;10.852;2022-12-18T07:23:22;11.60;;;6.20;;
41546;SDS011;27271;45.412;10.852;2022-12-18T07:26:48;11.35;;;6.28;;
41546;SDS011;27271;45.412;10.852;2022-12-18T07:30:15;12.55;;;6.53;;
41546;SDS011;27271;45.412;10.852;2022-12-18T07:33:40;12.25;;;6.60;;
41546;SDS011;27271;45.412;10.852;2022-12-18T07:37:14;17.65;;;8.18;;
41546;SDS011;27271;45.412;10.852;2022-12-18T07:40:37;9.93;;;6.88;;
41546;SDS011;27271;45.412;10.852;2022-12-18T07:44:00;15.55;;;9.07;;
41546;SDS011;27271;45.412;10.852;2022-12-18T07:47:22;19.63;;;8.32;;
41546;SDS011;27271;45.412;10.852;2022-12-18T07:50:44;20.13;;;9.00;;
41546;SDS011;27271;45.412;10.852;2022-12-18T07:54:06;16.30;;;9.40;;
41546;SDS011;27271;45.412;10.852;2022-12-18T07:57:28;16.95;;;9.65;;
41546;SDS011;27271;45.412;10.852;2022-12-18T08:01:11;18.80;;;10.50;;
41546;SDS011;27271;45.412;10.852;2022-12-18T08:04:39;15.60;;;8.53;;
41546;SDS011;27271;45.412;10.852;2022-12-18T08:08:03;23.48;;;11.25;;
41546;SDS011;27271;45.412;10.852;2022-12-18T08:11:29;20.67;;;10.60;;
41546;SDS011;27271;45.412;10.852;2022-12-18T08:15:03;21.95;;;11.20;;
41546;SDS011;27271;45.412;10.852;2022-12-18T08:18:34;19.42;;;10.48;;
41546;SDS011;27271;45.412;10.852;2022-12-18T08:21:58;23.33;;;12.80;;
41546;SDS011;27271;45.412;10.852;2022-12-18T08:25:20;21.35;;;11.15;;
41546;SDS011;27271;45.412;10.852;2022-12-18T08:28:42;22.40;;;11.60;;
41546;SDS011;27271;45.412;10.852;2022-12-18T08:32:06;20.75;;;10.50;;
41546;SDS011;27271;45.412;10.852;2022-12-18T08:35:36;17.40;;;10.55;;
41546;SDS011;27271;45.412;10.852;2022-12-18T08:39:07;24.90;;;15.02;;
41546;SDS011;27271;45.412;10.852;2022-12-18T08:42:33;21.98;;;12.40;;
41546;SDS011;27271;45.412;10.852;2022-12-18T08:46:18;24.10;;;11.98;;
41546;SDS011;27271;45.412;10.852;2022-12-18T08:49:45;36.35;;;16.10;;
41546;SDS011;27271;45.412;10.852;2022-12-18T08:53:07;27.35;;;13.32;;
41546;SDS011;27271;45.412;10.852;2022-12-18T08:56:31;28.13;;;13.73;;
41546;SDS011;27271;45.412;10.852;2022-12-18T08:59:55;25.67;;;12.80;;
41546;SDS011;27271;45.412;10.852;2022-12-18T09:03:19;28.02;;;13.90;;
41546;SDS011;27271;45.412;10.852;2022-12-18T09:06:47;26.40;;;14.02;;
41546;SDS011;27271;45.412;10.852;2022-12-18T09:10:11;28.30;;;13.80;;
41546;SDS011;27271;45.412;10.852;2022-12-18T09:13:38;29.25;;;14.23;;
41546;SDS011;27271;45.412;10.852;2022-12-18T09:17:04;29.83;;;13.63;;
41546;SDS011;27271;45.412;10.852;2022-12-18T09:20:26;29.67;;;14.15;;
41546;SDS011;27271;45.412;10.852;2022-12-18T09:23:50;29.67;;;15.98;;
41546;SDS011;27271;45.412;10.852;2022-12-18T09:27:16;32.25;;;15.82;;
41546;SDS011;27271;45.412;10.852;2022-12-18T09:30:42;28.35;;;14.85;;
41546;SDS011;27271;45.412;10.852;2022-12-18T09:34:06;30.10;;;14.90;;
41546;SDS011;27271;45.412;10.852;2022-12-18T09:37:32;30.63;;;16.40;;
41546;SDS011;27271;45.412;10.852;2022-12-18T09:40:59;29.02;;;14.07;;
41546;SDS011;27271;45.412;10.852;2022-12-18T09:47:53;29.67;;;15.18;;
41546;SDS011;27271;45.412;10.852;2022-12-18T09:51:19;28.85;;;14.50;;
41546;SDS011;27271;45.412;10.852;2022-12-18T09:58:35;28.27;;;13.50;;
41546;SDS011;27271;45.412;10.852;2022-12-18T10:02:20;27.08;;;14.50;;
41546;SDS011;27271;45.412;10.852;2022-12-18T10:06:00;30.30;;;15.18;;
41546;SDS011;27271;45.412;10.852;2022-12-18T10:13:15;29.27;;;14.57;;
41546;SDS011;27271;45.412;10.852;2022-12-18T10:20:54;31.88;;;16.98;;
41546;SDS011;27271;45.412;10.852;2022-12-18T10:28:07;33.42;;;17.25;;
41546;SDS011;27271;45.412;10.852;2022-12-18T10:31:33;32.90;;;16.20;;
41546;SDS011;27271;45.412;10.852;2022-12-18T10:34:57;32.08;;;15.63;;
41546;SDS011;27271;45.412;10.852;2022-12-18T10:38:23;31.55;;;15.38;;
41546;SDS011;27271;45.412;10.852;2022-12-18T10:41:50;30.75;;;16.42;;
41546;SDS011;27271;45.412;10.852;2022-12-18T10:45:16;28.83;;;16.08;;
41546;SDS011;27271;45.412;10.852;2022-12-18T10:48:50;28.80;;;14.80;;
41546;SDS011;27271;45.412;10.852;2022-12-18T10:52:18;27.35;;;15.57;;
41546;SDS011;27271;45.412;10.852;2022-12-18T10:55:45;28.10;;;14.82;;
41546;SDS011;27271;45.412;10.852;2022-12-18T10:59:10;24.42;;;13.90;;
41546;SDS011;27271;45.412;10.852;2022-12-18T11:02:37;28.80;;;15.15;;
41546;SDS011;27271;45.412;10.852;2022-12-18T11:06:01;25.77;;;15.32;;
41546;SDS011;27271;45.412;10.852;2022-12-18T11:09:45;25.13;;;13.73;;
41546;SDS011;27271;45.412;10.852;2022-12-18T11:13:25;22.33;;;13.27;;
41546;SDS011;27271;45.412;10.852;2022-12-18T11:16:51;22.52;;;12.13;;
41546;SDS011;27271;45.412;10.852;2022-12-18T11:20:35;34.53;;;16.80;;
41546;SDS011;27271;45.412;10.852;2022-12-18T11:23:59;17.60;;;9.30;;
41546;SDS011;27271;45.412;10.852;2022-12-18T11:27:22;17.08;;;10.27;;
41546;SDS011;27271;45.412;10.852;2022-12-18T11:31:12;16.65;;;8.82;;
41546;SDS011;27271;45.412;10.852;2022-12-18T11:34:42;13.10;;;8.45;;
41546;SDS011;27271;45.412;10.852;2022-12-18T11:38:28;13.05;;;8.18;;
41546;SDS011;27271;45.412;10.852;2022-12-18T11:46:04;11.48;;;7.32;;
41546;SDS011;27271;45.412;10.852;2022-12-18T11:49:40;14.48;;;7.72;;
41546;SDS011;27271;45.412;10.852;2022-12-18T11:53:09;13.65;;;7.93;;
41546;SDS011;27271;45.412;10.852;2022-12-18T11:56:44;13.90;;;6.97;;
41546;SDS011;27271;45.412;10.852;2022-12-18T12:00:49;12.15;;;6.53;;
41546;SDS011;27271;45.412;10.852;2022-12-18T12:04:17;10.48;;;6.35;;
41546;SDS011;27271;45.412;10.852;2022-12-18T12:08:01;11.60;;;7.10;;
41546;SDS011;27271;45.412;10.852;2022-12-18T12:19:15;11.48;;;6.57;;
41546;SDS011;27271;45.412;10.852;2022-12-18T12:23:02;14.70;;;6.93;;
41546;SDS011;27271;45.412;10.852;2022-12-18T12:26:38;13.18;;;6.97;;
41546;SDS011;27271;45.412;10.852;2022-12-18T12:41:40;10.43;;;5.88;;
41546;SDS011;27271;45.412;10.852;2022-12-18T12:45:25;12.43;;;6.53;;
41546;SDS011;27271;45.412;10.852;2022-12-18T12:49:04;9.85;;;5.60;;
41546;SDS011;27271;45.412;10.852;2022-12-18T12:52:39;14.70;;;6.43;;
41546;SDS011;27271;45.412;10.852;2022-12-18T12:56:05;10.38;;;5.80;;
41546;SDS011;27271;45.412;10.852;2022-12-18T13:07:17;12.73;;;6.20;;
41546;SDS011;27271;45.412;10.852;2022-12-18T13:11:11;14.85;;;6.43;;
41546;SDS011;27271;45.412;10.852;2022-12-18T13:16:10;15.27;;;6.93;;
41546;SDS011;27271;45.412;10.852;2022-12-18T13:19:28;14.73;;;6.95;;
41546;SDS011;27271;45.412;10.852;2022-12-18T13:22:51;11.32;;;6.50;;
41546;SDS011;27271;45.412;10.852;2022-12-18T13:29:48;17.40;;;8.02;;
41546;SDS011;27271;45.412;10.852;2022-12-18T13:36:41;12.13;;;6.88;;
41546;SDS011;27271;45.412;10.852;2022-12-18T13:40:07;22.13;;;10.88;;
41546;SDS011;27271;45.412;10.852;2022-12-18T13:47:43;12.05;;;6.25;;
41546;SDS011;27271;45.412;10.852;2022-12-18T13:51:07;38.90;;;15.02;;
41546;SDS011;27271;45.412;10.852;2022-12-18T13:58:04;16.65;;;8.68;;
41546;SDS011;27271;45.412;10.852;2022-12-18T14:01:28;10.05;;;5.90;;
41546;SDS011;27271;45.412;10.852;2022-12-18T14:04:55;14.85;;;6.40;;
41546;SDS011;27271;45.412;10.852;2022-12-18T14:08:17;13.90;;;8.55;;
41546;SDS011;27271;45.412;10.852;2022-12-18T14:11:45;10.00;;;5.93;;
41546;SDS011;27271;45.412;10.852;2022-12-18T14:15:31;13.38;;;7.03;;
41546;SDS011;27271;45.412;10.852;2022-12-18T14:18:57;11.32;;;6.20;;
41546;SDS011;27271;45.412;10.852;2022-12-18T14:22:35;10.48;;;6.57;;
41546;SDS011;27271;45.412;10.852;2022-12-18T14:25:57;12.43;;;6.50;;
41546;SDS011;27271;45.412;10.852;2022-12-18T14:29:27;12.20;;;7.13;;
41546;SDS011;27271;45.412;10.852;2022-12-18T14:33:02;12.82;;;7.13;;
41546;SDS011;27271;45.412;10.852;2022-12-18T14:36:31;16.10;;;7.35;;
41546;SDS011;27271;45.412;10.852;2022-12-18T14:39:54;17.40;;;9.18;;
41546;SDS011;27271;45.412;10.852;2022-12-18T14:43:25;13.32;;;7.55;;
41546;SDS011;27271;45.412;10.852;2022-12-18T14:46:52;13.45;;;7.28;;
41546;SDS011;27271;45.412;10.852;2022-12-18T14:50:17;16.67;;;8.60;;
41546;SDS011;27271;45.412;10.852;2022-12-18T14:53:47;14.82;;;7.95;;
41546;SDS011;27271;45.412;10.852;2022-12-18T15:00:45;14.13;;;8.00;;
41546;SDS011;27271;45.412;10.852;2022-12-18T15:04:22;13.90;;;7.82;;
41546;SDS011;27271;45.412;10.852;2022-12-18T15:07:52;16.05;;;7.97;;
41546;SDS011;27271;45.412;10.852;2022-12-18T15:11:26;14.07;;;7.15;;
41546;SDS011;27271;45.412;10.852;2022-12-18T15:14:55;14.65;;;7.47;;
41546;SDS011;27271;45.412;10.852;2022-12-18T15:18:27;18.08;;;8.45;;
41546;SDS011;27271;45.412;10.852;2022-12-18T15:21:54;17.05;;;7.82;;
41546;SDS011;27271;45.412;10.852;2022-12-18T15:25:31;22.73;;;9.73;;
41546;SDS011;27271;45.412;10.852;2022-12-18T15:28:58;17.17;;;9.35;;
41546;SDS011;27271;45.412;10.852;2022-12-18T15:32:21;20.52;;;9.90;;
41546;SDS011;27271;45.412;10.852;2022-12-18T15:35:43;18.67;;;9.77;;
41546;SDS011;27271;45.412;10.852;2022-12-18T15:39:09;17.55;;;9.23;;
41546;SDS011;27271;45.412;10.852;2022-12-18T15:42:33;19.40;;;10.85;;
41546;SDS011;27271;45.412;10.852;2022-12-18T15:46:14;16.45;;;9.57;;
41546;SDS011;27271;45.412;10.852;2022-12-18T15:49:38;14.60;;;9.32;;
41546;SDS011;27271;45.412;10.852;2022-12-18T15:53:01;16.58;;;9.57;;
41546;SDS011;27271;45.412;10.852;2022-12-18T15:56:24;21.20;;;10.45;;
41546;SDS011;27271;45.412;10.852;2022-12-18T16:00:05;18.80;;;10.70;;
41546;SDS011;27271;45.412;10.852;2022-12-18T16:03:28;19.23;;;11.50;;
41546;SDS011;27271;45.412;10.852;2022-12-18T16:06:51;23.05;;;11.10;;
41546;SDS011;27271;45.412;10.852;2022-12-18T16:10:33;32.88;;;14.23;;
41546;SDS011;27271;45.412;10.852;2022-12-18T16:13:57;34.25;;;13.52;;
41546;SDS011;27271;45.412;10.852;2022-12-18T16:17:22;34.83;;;16.58;;
41546;SDS011;27271;45.412;10.852;2022-12-18T16:20:45;42.17;;;16.63;;
41546;SDS011;27271;45.412;10.852;2022-12-18T16:24:18;35.42;;;16.05;;
41546;SDS011;27271;45.412;10.852;2022-12-18T16:27:43;29.58;;;14.57;;
41546;SDS011;27271;45.412;10.852;2022-12-18T16:31:08;32.97;;;16.30;;
41546;SDS011;27271;45.412;10.852;2022-12-18T16:34:31;37.10;;;15.65;;
41546;SDS011;27271;45.412;10.852;2022-12-18T16:37:56;34.42;;;14.60;;
41546;SDS011;27271;45.412;10.852;2022-12-18T16:41:19;37.88;;;15.75;;
41546;SDS011;27271;45.412;10.852;2022-12-18T16:44:53;36.05;;;14.40;;
41546;SDS011;27271;45.412;10.852;2022-12-18T16:48:16;37.38;;;14.75;;
41546;SDS011;27271;45.412;10.852;2022-12-18T16:51:38;39.00;;;15.82;;
41546;SDS011;27271;45.412;10.852;2022-12-18T16:55:01;33.72;;;15.93;;
41546;SDS011;27271;45.412;10.852;2022-12-18T16:58:23;44.30;;;17.73;;
41546;SDS011;27271;45.412;10.852;2022-12-18T17:01:46;36.60;;;16.45;;
41546;SDS011;27271;45.412;10.852;2022-12-18T17:05:11;38.05;;;16.90;;
41546;SDS011;27271;45.412;10.852;2022-12-18T17:08:34;36.28;;;15.88;;
41546;SDS011;27271;45.412;10.852;2022-12-18T17:11:57;39.72;;;17.88;;
41546;SDS011;27271;45.412;10.852;2022-12-18T17:15:25;41.38;;;17.55;;
41546;SDS011;27271;45.412;10.852;2022-12-18T17:18:48;32.03;;;14.35;;
41546;SDS011;27271;45.412;10.852;2022-12-18T17:22:11;37.33;;;17.02;;
41546;SDS011;27271;45.412;10.852;2022-12-18T17:25:33;32.95;;;14.98;;
41546;SDS011;27271;45.412;10.852;2022-12-18T17:28:56;39.35;;;16.02;;
41546;SDS011;27271;45.412;10.852;2022-12-18T17:32:19;30.85;;;15.07;;
41546;SDS011;27271;45.412;10.852;2022-12-18T17:35:42;35.13;;;15.25;;
41546;SDS011;27271;45.412;10.852;2022-12-18T17:39:05;31.20;;;13.88;;
41546;SDS011;27271;45.412;10.852;2022-12-18T17:42:27;27.63;;;11.80;;
41546;SDS011;27271;45.412;10.852;2022-12-18T17:45:50;25.23;;;12.07;;
41546;SDS011;27271;45.412;10.852;2022-12-18T17:49:12;23.17;;;10.35;;
41546;SDS011;27271;45.412;10.852;2022-12-18T17:52:34;22.98;;;11.25;;
41546;SDS011;27271;45.412;10.852;2022-12-18T17:55:57;21.33;;;10.88;;
41546;SDS011;27271;45.412;10.852;2022-12-18T17:59:28;30.67;;;13.13;;
41546;SDS011;27271;45.412;10.852;2022-12-18T18:02:53;22.92;;;10.32;;
41546;SDS011;27271;45.412;10.852;2022-12-18T18:06:16;20.73;;;10.13;;
41546;SDS011;27271;45.412;10.852;2022-12-18T18:09:38;25.73;;;10.48;;
41546;SDS011;27271;45.412;10.852;2022-12-18T18:13:00;19.35;;;9.65;;
41546;SDS011;27271;45.412;10.852;2022-12-18T18:16:51;20.30;;;9.85;;
41546;SDS011;27271;45.412;10.852;2022-12-18T18:20:15;25.15;;;11.35;;
41546;SDS011;27271;45.412;10.852;2022-12-18T18:23:43;18.35;;;9.02;;
41546;SDS011;27271;45.412;10.852;2022-12-18T18:27:08;23.38;;;8.70;;
41546;SDS011;27271;45.412;10.852;2022-12-18T18:30:31;17.73;;;8.23;;
41546;SDS011;27271;45.412;10.852;2022-12-18T18:33:56;18.30;;;8.57;;
41546;SDS011;27271;45.412;10.852;2022-12-18T18:37:19;16.13;;;8.07;;
41546;SDS011;27271;45.412;10.852;2022-12-18T18:40:41;17.20;;;8.55;;
41546;SDS011;27271;45.412;10.852;2022-12-18T18:44:03;16.88;;;7.72;;
41546;SDS011;27271;45.412;10.852;2022-12-18T18:47:27;20.23;;;9.05;;
41546;SDS011;27271;45.412;10.852;2022-12-18T18:50:57;21.15;;;9.57;;
41546;SDS011;27271;45.412;10.852;2022-12-18T18:54:23;18.35;;;8.70;;
41546;SDS011;27271;45.412;10.852;2022-12-18T18:57:46;17.10;;;7.72;;
41546;SDS011;27271;45.412;10.852;2022-12-18T19:01:10;17.83;;;8.55;;
41546;SDS011;27271;45.412;10.852;2022-12-18T19:04:41;20.55;;;9.05;;
41546;SDS011;27271;45.412;10.852;2022-12-18T19:08:07;22.65;;;9.02;;
41546;SDS011;27271;45.412;10.852;2022-12-18T19:11:31;20.67;;;8.80;;
41546;SDS011;27271;45.412;10.852;2022-12-18T19:15:12;15.20;;;8.02;;
41546;SDS011;27271;45.412;10.852;2022-12-18T19:18:34;22.02;;;9.20;;
41546;SDS011;27271;45.412;10.852;2022-12-18T19:21:59;18.60;;;9.10;;
41546;SDS011;27271;45.412;10.852;2022-12-18T19:25:23;18.52;;;8.88;;
41546;SDS011;27271;45.412;10.852;2022-12-18T19:29:02;16.27;;;8.23;;
41546;SDS011;27271;45.412;10.852;2022-12-18T19:32:27;16.10;;;8.05;;
41546;SDS011;27271;45.412;10.852;2022-12-18T19:35:50;17.70;;;8.07;;
41546;SDS011;27271;45.412;10.852;2022-12-18T19:39:20;15.60;;;8.18;;
41546;SDS011;27271;45.412;10.852;2022-12-18T19:42:45;21.45;;;9.80;;
41546;SDS011;27271;45.412;10.852;2022-12-18T19:46:09;14.40;;;8.10;;
41546;SDS011;27271;45.412;10.852;2022-12-18T19:49:35;13.23;;;6.75;;
41546;SDS011;27271;45.412;10.852;2022-12-18T19:52:59;19.20;;;8.40;;
41546;SDS011;27271;45.412;10.852;2022-12-18T19:56:27;15.10;;;7.88;;
41546;SDS011;27271;45.412;10.852;2022-12-18T19:59:53;18.73;;;9.88;;
41546;SDS011;27271;45.412;10.852;2022-12-18T20:03:15;30.25;;;12.05;;
41546;SDS011;27271;45.412;10.852;2022-12-18T20:06:51;27.85;;;12.25;;
41546;SDS011;27271;45.412;10.852;2022-12-18T20:10:14;25.42;;;12.85;;
41546;SDS011;27271;45.412;10.852;2022-12-18T20:13:39;27.58;;;11.38;;
41546;SDS011;27271;45.412;10.852;2022-12-18T20:17:05;30.00;;;13.77;;
41546;SDS011;27271;45.412;10.852;2022-12-18T20:20:27;32.63;;;14.02;;
41546;SDS011;27271;45.412;10.852;2022-12-18T20:23:51;32.35;;;14.25;;
41546;SDS011;27271;45.412;10.852;2022-12-18T20:27:13;26.00;;;14.05;;
41546;SDS011;27271;45.412;10.852;2022-12-18T20:30:40;23.02;;;11.10;;
41546;SDS011;27271;45.412;10.852;2022-12-18T20:34:02;25.40;;;12.68;;
41546;SDS011;27271;45.412;10.852;2022-12-18T20:37:26;28.52;;;11.88;;
41546;SDS011;27271;45.412;10.852;2022-12-18T20:40:51;26.35;;;12.77;;
41546;SDS011;27271;45.412;10.852;2022-12-18T20:44:14;32.30;;;13.95;;
41546;SDS011;27271;45.412;10.852;2022-12-18T20:47:44;36.05;;;13.32;;
41546;SDS011;27271;45.412;10.852;2022-12-18T20:51:07;23.88;;;11.57;;
41546;SDS011;27271;45.412;10.852;2022-12-18T20:54:39;26.00;;;11.43;;
41546;SDS011;27271;45.412;10.852;2022-12-18T20:58:03;27.02;;;12.60;;
41546;SDS011;27271;45.412;10.852;2022-12-18T21:01:26;29.10;;;12.40;;
41546;SDS011;27271;45.412;10.852;2022-12-18T21:04:49;24.50;;;11.32;;
41546;SDS011;27271;45.412;10.852;2022-12-18T21:08:13;24.95;;;11.13;;
41546;SDS011;27271;45.412;10.852;2022-12-18T21:11:36;27.95;;;11.93;;
41546;SDS011;27271;45.412;10.852;2022-12-18T21:15:17;28.35;;;12.00;;
41546;SDS011;27271;45.412;10.852;2022-12-18T21:18:49;23.15;;;9.90;;
41546;SDS011;27271;45.412;10.852;2022-12-18T21:22:23;22.08;;;10.85;;
41546;SDS011;27271;45.412;10.852;2022-12-18T21:25:49;23.25;;;10.13;;
41546;SDS011;27271;45.412;10.852;2022-12-18T21:29:20;23.98;;;11.50;;